sensor_id;sensor_type;location;lat;lon;timestamp;P1;durP1;ratioP1;P2;durP2;ratioP2
70444;SDS011;57902;49.638;11.070;2023-03-31T00:02:10;4.93;;;1.27;;
70444;SDS011;57902;49.638;11.070;2023-03-31T00:04:58;5.53;;;1.30;;
70444;SDS011;57902;49.638;11.070;2023-03-31T00:07:33;4.25;;;1.00;;
70444;SDS011;57902;49.638;11.070;2023-03-31T00:10:13;7.78;;;1.40;;
70444;SDS011;57902;49.638;11.070;2023-03-31T00:12:57;3.67;;;1.05;;
70444;SDS011;57902;49.638;11.070;2023-03-31T00:15:29;4.45;;;1.23;;
70444;SDS011;57902;49.638;11.070;2023-03-31T00:18:08;5.13;;;1.20;;
70444;SDS011;57902;49.638;11.070;2023-03-31T00:20:45;4.85;;;1.10;;
70444;SDS011;57902;49.638;11.070;2023-03-31T00:23:47;4.22;;;1.30;;
70444;SDS011;57902;49.638;11.070;2023-03-31T00:26:20;3.97;;;1.10;;
70444;SDS011;57902;49.638;11.070;2023-03-31T00:29:02;5.85;;;1.08;;
70444;SDS011;57902;49.638;11.070;2023-03-31T00:31:48;4.38;;;1.50;;
70444;SDS011;57902;49.638;11.070;2023-03-31T00:34:23;5.78;;;1.20;;
70444;SDS011;57902;49.638;11.070;2023-03-31T00:36:58;3.67;;;1.10;;
70444;SDS011;57902;49.638;11.070;2023-03-31T00:39:37;4.20;;;1.15;;
70444;SDS011;57902;49.638;11.070;2023-03-31T00:42:05;4.20;;;1.20;;
70444;SDS011;57902;49.638;11.070;2023-03-31T00:44:37;2.83;;;0.98;;
70444;SDS011;57902;49.638;11.070;2023-03-31T00:47:26;5.13;;;1.20;;
70444;SDS011;57902;49.638;11.070;2023-03-31T00:50:05;5.28;;;1.20;;
70444;SDS011;57902;49.638;11.070;2023-03-31T00:53:05;3.58;;;1.00;;
70444;SDS011;57902;49.638;11.070;2023-03-31T00:58:43;2.47;;;1.13;;
70444;SDS011;57902;49.638;11.070;2023-03-31T01:01:32;4.65;;;1.10;;
70444;SDS011;57902;49.638;11.070;2023-03-31T01:04:04;5.32;;;1.23;;
70444;SDS011;57902;49.638;11.070;2023-03-31T01:06:37;2.88;;;1.00;;
70444;SDS011;57902;49.638;11.070;2023-03-31T01:09:29;3.70;;;1.23;;
70444;SDS011;57902;49.638;11.070;2023-03-31T01:12:05;12.60;;;1.67;;
70444;SDS011;57902;49.638;11.070;2023-03-31T01:14:35;5.95;;;1.15;;
70444;SDS011;57902;49.638;11.070;2023-03-31T01:17:01;3.42;;;1.10;;
70444;SDS011;57902;49.638;11.070;2023-03-31T01:22:32;5.82;;;1.42;;
70444;SDS011;57902;49.638;11.070;2023-03-31T01:25:25;3.28;;;1.20;;
70444;SDS011;57902;49.638;11.070;2023-03-31T01:28:06;6.70;;;1.20;;
70444;SDS011;57902;49.638;11.070;2023-03-31T01:30:49;7.55;;;1.27;;
70444;SDS011;57902;49.638;11.070;2023-03-31T01:39:07;5.57;;;1.40;;
70444;SDS011;57902;49.638;11.070;2023-03-31T01:47:49;6.88;;;1.17;;
70444;SDS011;57902;49.638;11.070;2023-03-31T01:51:06;6.95;;;1.40;;
70444;SDS011;57902;49.638;11.070;2023-03-31T01:53:17;4.70;;;1.10;;
70444;SDS011;57902;49.638;11.070;2023-03-31T01:58:49;10.27;;;1.48;;
70444;SDS011;57902;49.638;11.070;2023-03-31T02:01:25;4.68;;;1.17;;
70444;SDS011;57902;49.638;11.070;2023-03-31T02:04:14;6.72;;;1.30;;
70444;SDS011;57902;49.638;11.070;2023-03-31T02:06:47;4.30;;;1.48;;
70444;SDS011;57902;49.638;11.070;2023-03-31T02:09:23;4.43;;;1.27;;
70444;SDS011;57902;49.638;11.070;2023-03-31T02:11:54;6.80;;;1.33;;
70444;SDS011;57902;49.638;11.070;2023-03-31T02:14:23;3.03;;;0.95;;
70444;SDS011;57902;49.638;11.070;2023-03-31T02:16:54;5.65;;;1.20;;
70444;SDS011;57902;49.638;11.070;2023-03-31T02:19:28;4.25;;;1.13;;
70444;SDS011;57902;49.638;11.070;2023-03-31T02:22:06;5.70;;;1.17;;
70444;SDS011;57902;49.638;11.070;2023-03-31T02:24:37;5.95;;;1.13;;
70444;SDS011;57902;49.638;11.070;2023-03-31T02:27:09;5.70;;;1.48;;
70444;SDS011;57902;49.638;11.070;2023-03-31T02:29:43;5.20;;;1.13;;
70444;SDS011;57902;49.638;11.070;2023-03-31T02:32:12;6.18;;;1.15;;
70444;SDS011;57902;49.638;11.070;2023-03-31T02:34:46;5.90;;;1.10;;
70444;SDS011;57902;49.638;11.070;2023-03-31T02:37:12;5.43;;;1.40;;
70444;SDS011;57902;49.638;11.070;2023-03-31T02:39:40;5.43;;;1.20;;
70444;SDS011;57902;49.638;11.070;2023-03-31T02:42:10;7.13;;;1.30;;
70444;SDS011;57902;49.638;11.070;2023-03-31T02:44:37;7.05;;;1.45;;
70444;SDS011;57902;49.638;11.070;2023-03-31T02:47:06;4.18;;;1.25;;
70444;SDS011;57902;49.638;11.070;2023-03-31T02:49:34;4.25;;;1.30;;
70444;SDS011;57902;49.638;11.070;2023-03-31T02:52:19;6.93;;;1.40;;
70444;SDS011;57902;49.638;11.070;2023-03-31T02:58:12;4.45;;;1.27;;
70444;SDS011;57902;49.638;11.070;2023-03-31T03:04:38;6.53;;;1.20;;
70444;SDS011;57902;49.638;11.070;2023-03-31T03:15:20;5.88;;;1.40;;
70444;SDS011;57902;49.638;11.070;2023-03-31T03:17:52;5.10;;;1.48;;
70444;SDS011;57902;49.638;11.070;2023-03-31T03:20:21;4.50;;;1.10;;
70444;SDS011;57902;49.638;11.070;2023-03-31T03:25:16;4.38;;;1.10;;
70444;SDS011;57902;49.638;11.070;2023-03-31T03:27:43;5.85;;;1.20;;
70444;SDS011;57902;49.638;11.070;2023-03-31T03:30:10;5.63;;;1.25;;
70444;SDS011;57902;49.638;11.070;2023-03-31T03:32:37;6.53;;;1.50;;
70444;SDS011;57902;49.638;11.070;2023-03-31T03:35:07;5.15;;;1.25;;
70444;SDS011;57902;49.638;11.070;2023-03-31T03:37:34;5.28;;;1.40;;
70444;SDS011;57902;49.638;11.070;2023-03-31T03:40:00;5.90;;;1.20;;
70444;SDS011;57902;49.638;11.070;2023-03-31T03:42:27;5.93;;;1.30;;
70444;SDS011;57902;49.638;11.070;2023-03-31T03:44:53;6.35;;;1.30;;
70444;SDS011;57902;49.638;11.070;2023-03-31T03:47:20;5.00;;;1.25;;
70444;SDS011;57902;49.638;11.070;2023-03-31T03:49:47;8.43;;;1.63;;
70444;SDS011;57902;49.638;11.070;2023-03-31T03:52:14;6.72;;;1.77;;
70444;SDS011;57902;49.638;11.070;2023-03-31T03:54:41;7.57;;;1.20;;
70444;SDS011;57902;49.638;11.070;2023-03-31T03:57:07;5.68;;;1.13;;
70444;SDS011;57902;49.638;11.070;2023-03-31T03:59:34;7.50;;;1.58;;
70444;SDS011;57902;49.638;11.070;2023-03-31T04:02:00;4.57;;;1.23;;
70444;SDS011;57902;49.638;11.070;2023-03-31T04:04:27;5.45;;;1.30;;
70444;SDS011;57902;49.638;11.070;2023-03-31T04:06:53;6.28;;;1.27;;
70444;SDS011;57902;49.638;11.070;2023-03-31T04:09:19;4.80;;;1.40;;
70444;SDS011;57902;49.638;11.070;2023-03-31T04:11:46;4.20;;;1.08;;
70444;SDS011;57902;49.638;11.070;2023-03-31T04:14:12;6.22;;;1.40;;
70444;SDS011;57902;49.638;11.070;2023-03-31T04:16:39;5.28;;;1.23;;
70444;SDS011;57902;49.638;11.070;2023-03-31T04:19:09;6.72;;;1.30;;
70444;SDS011;57902;49.638;11.070;2023-03-31T04:21:38;5.22;;;1.15;;
70444;SDS011;57902;49.638;11.070;2023-03-31T04:24:11;4.72;;;1.15;;
70444;SDS011;57902;49.638;11.070;2023-03-31T04:26:41;7.35;;;1.65;;
70444;SDS011;57902;49.638;11.070;2023-03-31T04:29:11;5.93;;;1.15;;
70444;SDS011;57902;49.638;11.070;2023-03-31T04:31:39;5.15;;;1.30;;
70444;SDS011;57902;49.638;11.070;2023-03-31T04:34:10;6.45;;;1.30;;
70444;SDS011;57902;49.638;11.070;2023-03-31T04:36:42;4.18;;;1.30;;
70444;SDS011;57902;49.638;11.070;2023-03-31T04:39:14;6.35;;;1.58;;
70444;SDS011;57902;49.638;11.070;2023-03-31T04:41:42;4.32;;;1.30;;
70444;SDS011;57902;49.638;11.070;2023-03-31T04:44:09;9.35;;;1.85;;
70444;SDS011;57902;49.638;11.070;2023-03-31T04:46:35;7.30;;;1.30;;
70444;SDS011;57902;49.638;11.070;2023-03-31T04:49:02;4.47;;;1.20;;
70444;SDS011;57902;49.638;11.070;2023-03-31T04:51:30;6.28;;;1.42;;
70444;SDS011;57902;49.638;11.070;2023-03-31T04:53:57;5.93;;;1.38;;
70444;SDS011;57902;49.638;11.070;2023-03-31T04:56:23;10.98;;;1.67;;
70444;SDS011;57902;49.638;11.070;2023-03-31T04:58:50;4.93;;;1.40;;
70444;SDS011;57902;49.638;11.070;2023-03-31T05:01:16;3.65;;;1.35;;
70444;SDS011;57902;49.638;11.070;2023-03-31T05:03:46;4.63;;;1.20;;
70444;SDS011;57902;49.638;11.070;2023-03-31T05:06:13;6.88;;;1.50;;
70444;SDS011;57902;49.638;11.070;2023-03-31T05:08:40;5.05;;;1.20;;
70444;SDS011;57902;49.638;11.070;2023-03-31T05:11:07;5.53;;;1.52;;
70444;SDS011;57902;49.638;11.070;2023-03-31T05:13:34;7.10;;;1.45;;
70444;SDS011;57902;49.638;11.070;2023-03-31T05:16:07;5.00;;;1.50;;
70444;SDS011;57902;49.638;11.070;2023-03-31T05:18:35;6.10;;;1.20;;
70444;SDS011;57902;49.638;11.070;2023-03-31T05:23:36;6.72;;;1.25;;
70444;SDS011;57902;49.638;11.070;2023-03-31T05:26:02;6.53;;;1.30;;
70444;SDS011;57902;49.638;11.070;2023-03-31T05:28:30;7.88;;;1.60;;
70444;SDS011;57902;49.638;11.070;2023-03-31T05:30:58;3.15;;;1.30;;
70444;SDS011;57902;49.638;11.070;2023-03-31T05:33:26;7.47;;;1.50;;
70444;SDS011;57902;49.638;11.070;2023-03-31T05:35:53;6.20;;;1.30;;
70444;SDS011;57902;49.638;11.070;2023-03-31T05:38:20;5.25;;;1.23;;
70444;SDS011;57902;49.638;11.070;2023-03-31T05:40:47;5.68;;;1.45;;
70444;SDS011;57902;49.638;11.070;2023-03-31T05:43:16;6.95;;;1.30;;
70444;SDS011;57902;49.638;11.070;2023-03-31T05:45:43;5.50;;;1.27;;
70444;SDS011;57902;49.638;11.070;2023-03-31T05:48:09;8.45;;;1.65;;
70444;SDS011;57902;49.638;11.070;2023-03-31T05:50:36;6.32;;;1.63;;
70444;SDS011;57902;49.638;11.070;2023-03-31T05:53:02;5.93;;;1.70;;
70444;SDS011;57902;49.638;11.070;2023-03-31T05:55:29;8.02;;;1.80;;
70444;SDS011;57902;49.638;11.070;2023-03-31T05:57:58;7.22;;;1.60;;
70444;SDS011;57902;49.638;11.070;2023-03-31T06:00:25;7.85;;;1.85;;
70444;SDS011;57902;49.638;11.070;2023-03-31T06:02:51;6.82;;;1.70;;
70444;SDS011;57902;49.638;11.070;2023-03-31T06:05:18;5.28;;;1.30;;
70444;SDS011;57902;49.638;11.070;2023-03-31T06:07:44;5.63;;;1.33;;
70444;SDS011;57902;49.638;11.070;2023-03-31T06:10:11;7.78;;;2.08;;
70444;SDS011;57902;49.638;11.070;2023-03-31T06:12:37;5.80;;;1.60;;
70444;SDS011;57902;49.638;11.070;2023-03-31T06:15:03;7.32;;;1.55;;
70444;SDS011;57902;49.638;11.070;2023-03-31T06:17:30;5.75;;;1.27;;
70444;SDS011;57902;49.638;11.070;2023-03-31T06:19:57;7.32;;;1.50;;
70444;SDS011;57902;49.638;11.070;2023-03-31T06:22:25;4.97;;;1.40;;
70444;SDS011;57902;49.638;11.070;2023-03-31T06:24:52;8.32;;;2.03;;
70444;SDS011;57902;49.638;11.070;2023-03-31T06:27:18;5.50;;;1.92;;
70444;SDS011;57902;49.638;11.070;2023-03-31T06:29:45;6.55;;;1.70;;
70444;SDS011;57902;49.638;11.070;2023-03-31T06:32:11;6.70;;;1.70;;
70444;SDS011;57902;49.638;11.070;2023-03-31T06:34:38;6.45;;;2.05;;
70444;SDS011;57902;49.638;11.070;2023-03-31T06:37:04;8.93;;;1.77;;
70444;SDS011;57902;49.638;11.070;2023-03-31T06:39:31;11.20;;;2.60;;
70444;SDS011;57902;49.638;11.070;2023-03-31T06:41:57;8.32;;;1.92;;
70444;SDS011;57902;49.638;11.070;2023-03-31T06:44:24;8.18;;;2.10;;
70444;SDS011;57902;49.638;11.070;2023-03-31T06:46:50;7.30;;;1.70;;
70444;SDS011;57902;49.638;11.070;2023-03-31T06:49:17;7.13;;;1.77;;
70444;SDS011;57902;49.638;11.070;2023-03-31T06:51:43;8.68;;;2.00;;
70444;SDS011;57902;49.638;11.070;2023-03-31T06:54:09;6.72;;;1.95;;
70444;SDS011;57902;49.638;11.070;2023-03-31T06:56:36;7.90;;;2.03;;
70444;SDS011;57902;49.638;11.070;2023-03-31T06:59:02;8.93;;;2.00;;
70444;SDS011;57902;49.638;11.070;2023-03-31T07:01:29;5.90;;;1.88;;
70444;SDS011;57902;49.638;11.070;2023-03-31T07:03:56;9.98;;;2.15;;
70444;SDS011;57902;49.638;11.070;2023-03-31T07:06:23;7.35;;;1.90;;
70444;SDS011;57902;49.638;11.070;2023-03-31T07:08:50;8.10;;;2.45;;
70444;SDS011;57902;49.638;11.070;2023-03-31T07:11:17;7.32;;;1.70;;
70444;SDS011;57902;49.638;11.070;2023-03-31T07:13:46;6.05;;;2.10;;
70444;SDS011;57902;49.638;11.070;2023-03-31T07:16:12;10.30;;;2.50;;
70444;SDS011;57902;49.638;11.070;2023-03-31T07:18:39;5.88;;;2.00;;
70444;SDS011;57902;49.638;11.070;2023-03-31T07:21:07;7.63;;;2.00;;
70444;SDS011;57902;49.638;11.070;2023-03-31T07:23:35;7.25;;;2.03;;
70444;SDS011;57902;49.638;11.070;2023-03-31T07:26:02;7.18;;;2.20;;
70444;SDS011;57902;49.638;11.070;2023-03-31T07:28:29;7.43;;;2.10;;
70444;SDS011;57902;49.638;11.070;2023-03-31T07:30:56;8.93;;;2.22;;
70444;SDS011;57902;49.638;11.070;2023-03-31T07:33:22;7.03;;;2.08;;
70444;SDS011;57902;49.638;11.070;2023-03-31T07:35:49;8.57;;;1.95;;
70444;SDS011;57902;49.638;11.070;2023-03-31T07:38:33;9.73;;;2.03;;
70444;SDS011;57902;49.638;11.070;2023-03-31T07:40:59;7.68;;;2.10;;
70444;SDS011;57902;49.638;11.070;2023-03-31T07:43:34;7.03;;;2.33;;
70444;SDS011;57902;49.638;11.070;2023-03-31T07:46:01;5.78;;;1.88;;
70444;SDS011;57902;49.638;11.070;2023-03-31T07:48:28;6.07;;;2.20;;
70444;SDS011;57902;49.638;11.070;2023-03-31T07:50:54;8.55;;;2.22;;
70444;SDS011;57902;49.638;11.070;2023-03-31T07:53:21;8.30;;;2.33;;
70444;SDS011;57902;49.638;11.070;2023-03-31T07:55:47;10.88;;;2.42;;
70444;SDS011;57902;49.638;11.070;2023-03-31T07:58:14;8.02;;;2.38;;
70444;SDS011;57902;49.638;11.070;2023-03-31T08:00:40;8.35;;;2.33;;
70444;SDS011;57902;49.638;11.070;2023-03-31T08:03:07;7.35;;;2.40;;
70444;SDS011;57902;49.638;11.070;2023-03-31T08:05:33;7.05;;;2.67;;
70444;SDS011;57902;49.638;11.070;2023-03-31T08:08:00;8.20;;;2.55;;
70444;SDS011;57902;49.638;11.070;2023-03-31T08:10:27;7.40;;;2.47;;
70444;SDS011;57902;49.638;11.070;2023-03-31T08:12:53;8.85;;;2.85;;
70444;SDS011;57902;49.638;11.070;2023-03-31T08:15:21;8.77;;;2.70;;
70444;SDS011;57902;49.638;11.070;2023-03-31T08:17:48;9.35;;;2.55;;
70444;SDS011;57902;49.638;11.070;2023-03-31T08:20:14;8.63;;;2.90;;
70444;SDS011;57902;49.638;11.070;2023-03-31T08:22:41;13.55;;;3.38;;
70444;SDS011;57902;49.638;11.070;2023-03-31T08:25:07;8.88;;;2.90;;
70444;SDS011;57902;49.638;11.070;2023-03-31T08:27:35;7.20;;;2.95;;
70444;SDS011;57902;49.638;11.070;2023-03-31T08:30:03;8.95;;;2.88;;
70444;SDS011;57902;49.638;11.070;2023-03-31T08:32:34;12.23;;;3.40;;
70444;SDS011;57902;49.638;11.070;2023-03-31T08:35:01;6.30;;;2.67;;
70444;SDS011;57902;49.638;11.070;2023-03-31T08:37:27;10.38;;;3.30;;
70444;SDS011;57902;49.638;11.070;2023-03-31T08:39:54;7.35;;;3.22;;
70444;SDS011;57902;49.638;11.070;2023-03-31T08:44:54;9.70;;;3.28;;
70444;SDS011;57902;49.638;11.070;2023-03-31T08:47:26;7.82;;;3.10;;
70444;SDS011;57902;49.638;11.070;2023-03-31T08:49:57;8.95;;;3.40;;
70444;SDS011;57902;49.638;11.070;2023-03-31T08:52:33;8.65;;;3.33;;
70444;SDS011;57902;49.638;11.070;2023-03-31T08:55:06;13.95;;;3.42;;
70444;SDS011;57902;49.638;11.070;2023-03-31T08:57:40;7.40;;;3.00;;
70444;SDS011;57902;49.638;11.070;2023-03-31T09:00:26;11.25;;;3.05;;
70444;SDS011;57902;49.638;11.070;2023-03-31T09:03:17;8.23;;;2.83;;
70444;SDS011;57902;49.638;11.070;2023-03-31T09:08:34;8.85;;;2.60;;
70444;SDS011;57902;49.638;11.070;2023-03-31T09:11:09;10.00;;;3.33;;
70444;SDS011;57902;49.638;11.070;2023-03-31T09:13:56;8.07;;;2.80;;
70444;SDS011;57902;49.638;11.070;2023-03-31T09:19:18;10.77;;;3.55;;
70444;SDS011;57902;49.638;11.070;2023-03-31T09:21:53;9.43;;;2.60;;
70444;SDS011;57902;49.638;11.070;2023-03-31T09:24:22;6.45;;;2.63;;
70444;SDS011;57902;49.638;11.070;2023-03-31T09:27:01;8.57;;;3.05;;
70444;SDS011;57902;49.638;11.070;2023-03-31T09:29:39;8.40;;;2.80;;
70444;SDS011;57902;49.638;11.070;2023-03-31T09:32:17;7.47;;;2.75;;
70444;SDS011;57902;49.638;11.070;2023-03-31T09:34:47;8.98;;;3.08;;
70444;SDS011;57902;49.638;11.070;2023-03-31T09:37:17;9.07;;;2.85;;
70444;SDS011;57902;49.638;11.070;2023-03-31T09:39:46;6.90;;;2.80;;
70444;SDS011;57902;49.638;11.070;2023-03-31T09:42:12;6.07;;;2.55;;
70444;SDS011;57902;49.638;11.070;2023-03-31T09:44:40;7.68;;;2.53;;
70444;SDS011;57902;49.638;11.070;2023-03-31T09:47:18;7.53;;;2.97;;
70444;SDS011;57902;49.638;11.070;2023-03-31T09:49:58;5.63;;;2.42;;
70444;SDS011;57902;49.638;11.070;2023-03-31T09:52:31;9.32;;;2.67;;
70444;SDS011;57902;49.638;11.070;2023-03-31T09:55:03;7.57;;;2.53;;
70444;SDS011;57902;49.638;11.070;2023-03-31T09:57:53;9.60;;;2.92;;
70444;SDS011;57902;49.638;11.070;2023-03-31T10:00:21;7.50;;;2.55;;
70444;SDS011;57902;49.638;11.070;2023-03-31T10:02:54;7.90;;;2.70;;
70444;SDS011;57902;49.638;11.070;2023-03-31T10:07:47;7.72;;;2.30;;
70444;SDS011;57902;49.638;11.070;2023-03-31T10:10:30;6.95;;;2.50;;
70444;SDS011;57902;49.638;11.070;2023-03-31T10:12:58;5.95;;;2.20;;
70444;SDS011;57902;49.638;11.070;2023-03-31T10:15:32;7.53;;;2.13;;
70444;SDS011;57902;49.638;11.070;2023-03-31T10:18:05;7.97;;;2.50;;
70444;SDS011;57902;49.638;11.070;2023-03-31T10:20:37;6.68;;;2.45;;
70444;SDS011;57902;49.638;11.070;2023-03-31T10:23:05;7.78;;;2.40;;
70444;SDS011;57902;49.638;11.070;2023-03-31T10:25:41;6.35;;;2.13;;
70444;SDS011;57902;49.638;11.070;2023-03-31T10:28:11;5.68;;;2.30;;
70444;SDS011;57902;49.638;11.070;2023-03-31T10:30:45;5.05;;;2.17;;
70444;SDS011;57902;49.638;11.070;2023-03-31T10:33:19;9.27;;;2.53;;
70444;SDS011;57902;49.638;11.070;2023-03-31T10:35:56;6.28;;;2.00;;
70444;SDS011;57902;49.638;11.070;2023-03-31T10:38:35;7.03;;;2.00;;
70444;SDS011;57902;49.638;11.070;2023-03-31T10:41:05;7.90;;;2.22;;
70444;SDS011;57902;49.638;11.070;2023-03-31T10:46:05;5.90;;;1.98;;
70444;SDS011;57902;49.638;11.070;2023-03-31T10:48:33;7.18;;;1.75;;
70444;SDS011;57902;49.638;11.070;2023-03-31T10:53:47;5.20;;;1.83;;
70444;SDS011;57902;49.638;11.070;2023-03-31T11:10:41;3.45;;;0.80;;
70444;SDS011;57902;49.638;11.070;2023-03-31T11:13:06;6.78;;;1.00;;
70444;SDS011;57902;49.638;11.070;2023-03-31T11:23:51;6.70;;;1.00;;
70444;SDS011;57902;49.638;11.070;2023-03-31T11:26:45;4.47;;;1.02;;
70444;SDS011;57902;49.638;11.070;2023-03-31T11:37:31;6.75;;;1.50;;
70444;SDS011;57902;49.638;11.070;2023-03-31T11:40:08;5.95;;;1.40;;
70444;SDS011;57902;49.638;11.070;2023-03-31T11:48:37;4.95;;;1.02;;
70444;SDS011;57902;49.638;11.070;2023-03-31T11:51:08;2.97;;;0.80;;
70444;SDS011;57902;49.638;11.070;2023-03-31T11:53:48;5.05;;;1.10;;
70444;SDS011;57902;49.638;11.070;2023-03-31T11:56:18;4.07;;;0.70;;
70444;SDS011;57902;49.638;11.070;2023-03-31T11:58:51;3.78;;;1.00;;
70444;SDS011;57902;49.638;11.070;2023-03-31T12:01:41;2.55;;;1.00;;
70444;SDS011;57902;49.638;11.070;2023-03-31T12:06:49;3.20;;;0.60;;
70444;SDS011;57902;49.638;11.070;2023-03-31T12:09:39;2.42;;;0.70;;
70444;SDS011;57902;49.638;11.070;2023-03-31T12:12:19;2.28;;;0.60;;
70444;SDS011;57902;49.638;11.070;2023-03-31T12:15:12;2.30;;;0.50;;
70444;SDS011;57902;49.638;11.070;2023-03-31T12:17:44;2.17;;;0.55;;
70444;SDS011;57902;49.638;11.070;2023-03-31T12:20:28;1.08;;;0.70;;
70444;SDS011;57902;49.638;11.070;2023-03-31T12:22:59;1.10;;;0.40;;
70444;SDS011;57902;49.638;11.070;2023-03-31T12:25:33;1.23;;;0.52;;
70444;SDS011;57902;49.638;11.070;2023-03-31T12:28:11;2.03;;;0.60;;
70444;SDS011;57902;49.638;11.070;2023-03-31T12:30:38;8.05;;;4.05;;
70444;SDS011;57902;49.638;11.070;2023-03-31T12:47:02;3.10;;;0.70;;
70444;SDS011;57902;49.638;11.070;2023-03-31T12:52:32;1.35;;;0.60;;
70444;SDS011;57902;49.638;11.070;2023-03-31T12:57:51;3.22;;;0.70;;
70444;SDS011;57902;49.638;11.070;2023-03-31T13:00:19;6.15;;;2.28;;
70444;SDS011;57902;49.638;11.070;2023-03-31T13:02:49;2.58;;;0.63;;
70444;SDS011;57902;49.638;11.070;2023-03-31T13:05:42;3.63;;;0.82;;
70444;SDS011;57902;49.638;11.070;2023-03-31T13:08:47;1.45;;;0.57;;
70444;SDS011;57902;49.638;11.070;2023-03-31T13:11:20;2.45;;;0.70;;
70444;SDS011;57902;49.638;11.070;2023-03-31T13:16:50;1.88;;;0.60;;
70444;SDS011;57902;49.638;11.070;2023-03-31T13:19:31;1.45;;;0.50;;
70444;SDS011;57902;49.638;11.070;2023-03-31T13:22:00;2.90;;;0.50;;
70444;SDS011;57902;49.638;11.070;2023-03-31T13:24:29;1.60;;;0.40;;
70444;SDS011;57902;49.638;11.070;2023-03-31T13:26:57;3.10;;;0.50;;
70444;SDS011;57902;49.638;11.070;2023-03-31T13:29:43;2.38;;;0.50;;
70444;SDS011;57902;49.638;11.070;2023-03-31T13:35:04;2.05;;;0.55;;
70444;SDS011;57902;49.638;11.070;2023-03-31T13:43:32;2.97;;;0.60;;
70444;SDS011;57902;49.638;11.070;2023-03-31T13:52:19;2.78;;;0.90;;
70444;SDS011;57902;49.638;11.070;2023-03-31T14:04:10;2.88;;;0.70;;
70444;SDS011;57902;49.638;11.070;2023-03-31T14:06:54;3.00;;;0.57;;
70444;SDS011;57902;49.638;11.070;2023-03-31T14:09:36;4.68;;;0.50;;
70444;SDS011;57902;49.638;11.070;2023-03-31T14:12:29;7.25;;;1.65;;
70444;SDS011;57902;49.638;11.070;2023-03-31T14:15:00;4.65;;;0.70;;
70444;SDS011;57902;49.638;11.070;2023-03-31T14:20:01;4.38;;;0.80;;
70444;SDS011;57902;49.638;11.070;2023-03-31T14:28:39;6.50;;;1.10;;
70444;SDS011;57902;49.638;11.070;2023-03-31T14:31:23;3.08;;;0.93;;
70444;SDS011;57902;49.638;11.070;2023-03-31T14:34:13;4.65;;;0.70;;
70444;SDS011;57902;49.638;11.070;2023-03-31T14:36:50;5.32;;;0.90;;
70444;SDS011;57902;49.638;11.070;2023-03-31T14:39:30;3.95;;;0.80;;
70444;SDS011;57902;49.638;11.070;2023-03-31T14:42:03;2.85;;;0.80;;
70444;SDS011;57902;49.638;11.070;2023-03-31T14:44:33;3.58;;;0.98;;
70444;SDS011;57902;49.638;11.070;2023-03-31T14:47:00;2.10;;;0.68;;
70444;SDS011;57902;49.638;11.070;2023-03-31T14:49:33;3.22;;;1.00;;
70444;SDS011;57902;49.638;11.070;2023-03-31T14:52:03;4.95;;;0.70;;
70444;SDS011;57902;49.638;11.070;2023-03-31T14:54:39;3.63;;;0.60;;
70444;SDS011;57902;49.638;11.070;2023-03-31T14:57:06;4.13;;;0.63;;
70444;SDS011;57902;49.638;11.070;2023-03-31T14:59:33;3.13;;;0.57;;
70444;SDS011;57902;49.638;11.070;2023-03-31T15:02:03;4.53;;;0.70;;
70444;SDS011;57902;49.638;11.070;2023-03-31T15:04:32;1.30;;;0.35;;
70444;SDS011;57902;49.638;11.070;2023-03-31T15:07:10;5.53;;;0.80;;
70444;SDS011;57902;49.638;11.070;2023-03-31T15:09:37;4.15;;;1.00;;
70444;SDS011;57902;49.638;11.070;2023-03-31T15:12:11;3.92;;;1.00;;
70444;SDS011;57902;49.638;11.070;2023-03-31T15:17:35;2.83;;;0.55;;
70444;SDS011;57902;49.638;11.070;2023-03-31T15:25:55;3.75;;;0.70;;
70444;SDS011;57902;49.638;11.070;2023-03-31T15:28:25;3.95;;;0.80;;
70444;SDS011;57902;49.638;11.070;2023-03-31T15:30:56;4.40;;;0.73;;
70444;SDS011;57902;49.638;11.070;2023-03-31T15:33:35;4.25;;;0.60;;
70444;SDS011;57902;49.638;11.070;2023-03-31T15:36:07;7.28;;;0.70;;
70444;SDS011;57902;49.638;11.070;2023-03-31T15:38:37;4.15;;;0.73;;
70444;SDS011;57902;49.638;11.070;2023-03-31T15:41:09;5.53;;;0.70;;
70444;SDS011;57902;49.638;11.070;2023-03-31T15:46:08;8.45;;;1.38;;
70444;SDS011;57902;49.638;11.070;2023-03-31T15:48:38;3.83;;;1.13;;
70444;SDS011;57902;49.638;11.070;2023-03-31T15:51:21;6.25;;;0.75;;
70444;SDS011;57902;49.638;11.070;2023-03-31T15:53:50;4.55;;;0.90;;
70444;SDS011;57902;49.638;11.070;2023-03-31T15:56:29;6.68;;;0.77;;
70444;SDS011;57902;49.638;11.070;2023-03-31T15:59:02;2.15;;;0.60;;
70444;SDS011;57902;49.638;11.070;2023-03-31T16:01:32;1.38;;;0.40;;
70444;SDS011;57902;49.638;11.070;2023-03-31T16:04:01;4.53;;;0.75;;
70444;SDS011;57902;49.638;11.070;2023-03-31T16:06:43;5.70;;;0.90;;
70444;SDS011;57902;49.638;11.070;2023-03-31T16:09:15;4.85;;;0.70;;
70444;SDS011;57902;49.638;11.070;2023-03-31T16:11:49;4.18;;;0.60;;
70444;SDS011;57902;49.638;11.070;2023-03-31T16:16:47;1.50;;;0.43;;
70444;SDS011;57902;49.638;11.070;2023-03-31T16:19:17;2.97;;;0.50;;
70444;SDS011;57902;49.638;11.070;2023-03-31T16:21:50;4.15;;;0.50;;
70444;SDS011;57902;49.638;11.070;2023-03-31T16:24:20;3.90;;;0.80;;
70444;SDS011;57902;49.638;11.070;2023-03-31T16:26:57;4.72;;;0.70;;
70444;SDS011;57902;49.638;11.070;2023-03-31T16:29:32;8.38;;;0.88;;
70444;SDS011;57902;49.638;11.070;2023-03-31T16:32:07;2.38;;;0.50;;
70444;SDS011;57902;49.638;11.070;2023-03-31T16:34:34;3.20;;;0.80;;
70444;SDS011;57902;49.638;11.070;2023-03-31T16:37:36;4.63;;;0.68;;
70444;SDS011;57902;49.638;11.070;2023-03-31T16:40:03;4.78;;;0.75;;
70444;SDS011;57902;49.638;11.070;2023-03-31T16:42:30;3.88;;;0.60;;
70444;SDS011;57902;49.638;11.070;2023-03-31T16:44:57;2.58;;;0.68;;
70444;SDS011;57902;49.638;11.070;2023-03-31T16:47:38;2.72;;;0.90;;
70444;SDS011;57902;49.638;11.070;2023-03-31T16:50:08;4.93;;;0.70;;
70444;SDS011;57902;49.638;11.070;2023-03-31T16:52:35;3.65;;;0.73;;
70444;SDS011;57902;49.638;11.070;2023-03-31T16:55:02;3.78;;;0.80;;
70444;SDS011;57902;49.638;11.070;2023-03-31T16:57:28;5.28;;;0.80;;
70444;SDS011;57902;49.638;11.070;2023-03-31T16:59:55;2.97;;;0.80;;
70444;SDS011;57902;49.638;11.070;2023-03-31T17:02:24;2.88;;;0.60;;
70444;SDS011;57902;49.638;11.070;2023-03-31T17:04:50;4.00;;;0.90;;
70444;SDS011;57902;49.638;11.070;2023-03-31T17:07:31;1.70;;;0.43;;
70444;SDS011;57902;49.638;11.070;2023-03-31T17:09:58;3.08;;;0.57;;
70444;SDS011;57902;49.638;11.070;2023-03-31T17:12:24;2.50;;;0.63;;
70444;SDS011;57902;49.638;11.070;2023-03-31T17:14:51;1.92;;;0.70;;
70444;SDS011;57902;49.638;11.070;2023-03-31T17:17:17;3.30;;;0.90;;
70444;SDS011;57902;49.638;11.070;2023-03-31T17:19:44;7.25;;;0.93;;
70444;SDS011;57902;49.638;11.070;2023-03-31T17:22:11;4.75;;;0.88;;
70444;SDS011;57902;49.638;11.070;2023-03-31T17:24:38;4.93;;;0.93;;
70444;SDS011;57902;49.638;11.070;2023-03-31T17:27:04;4.68;;;0.90;;
70444;SDS011;57902;49.638;11.070;2023-03-31T17:29:31;7.03;;;0.85;;
70444;SDS011;57902;49.638;11.070;2023-03-31T17:31:57;5.15;;;0.60;;
70444;SDS011;57902;49.638;11.070;2023-03-31T17:34:24;4.30;;;0.90;;
70444;SDS011;57902;49.638;11.070;2023-03-31T17:36:50;3.67;;;0.70;;
70444;SDS011;57902;49.638;11.070;2023-03-31T17:39:19;4.50;;;0.90;;
70444;SDS011;57902;49.638;11.070;2023-03-31T17:41:46;2.25;;;0.60;;
70444;SDS011;57902;49.638;11.070;2023-03-31T17:44:12;4.90;;;1.10;;
70444;SDS011;57902;49.638;11.070;2023-03-31T17:46:39;5.72;;;0.85;;